createdAt,value
2023-03-12T00:00:09.292Z,7.40
2023-03-12T00:01:09.293Z,6.90
2023-03-12T00:02:09.305Z,8.50
2023-03-12T00:03:09.255Z,7.90
2023-03-12T00:04:09.369Z,7.80
2023-03-12T00:05:09.265Z,7.20
2023-03-12T00:06:10.989Z,7.00
2023-03-12T00:07:09.248Z,9.50
2023-03-12T00:08:09.195Z,8.40
2023-03-12T00:09:09.379Z,8.30
2023-03-12T00:10:09.170Z,7.50
2023-03-12T00:11:09.211Z,7.70
2023-03-12T00:12:09.162Z,7.60
2023-03-12T00:13:09.172Z,7.90
2023-03-12T00:14:09.130Z,9.30
2023-03-12T00:15:09.134Z,10.90
2023-03-12T00:16:09.274Z,10.00
2023-03-12T00:17:09.091Z,9.40
2023-03-12T00:18:09.362Z,8.80
2023-03-12T00:19:09.119Z,7.50
2023-03-12T00:20:09.082Z,7.60
2023-03-12T00:21:09.088Z,9.10
2023-03-12T00:22:09.100Z,10.00
2023-03-12T00:23:09.032Z,8.60
2023-03-12T00:24:09.024Z,8.40
2023-03-12T00:25:09.014Z,8.80
2023-03-12T00:26:09.013Z,7.40
2023-03-12T00:27:08.999Z,8.80
2023-03-12T00:28:08.976Z,8.60
2023-03-12T00:29:08.982Z,9.30
2023-03-12T00:30:08.954Z,8.00
2023-03-12T00:31:09.011Z,6.90
2023-03-12T00:32:08.954Z,8.60
2023-03-12T00:33:08.918Z,9.00
2023-03-12T00:34:08.909Z,8.50
2023-03-12T00:35:08.912Z,8.50
2023-03-12T00:36:08.904Z,7.20
2023-03-12T00:37:08.878Z,8.50
2023-03-12T00:38:08.879Z,9.50
2023-03-12T00:39:08.848Z,7.60
2023-03-12T00:40:08.850Z,8.80
2023-03-12T00:41:08.841Z,10.00
2023-03-12T00:42:08.840Z,8.90
2023-03-12T00:43:08.813Z,9.60
2023-03-12T00:44:08.800Z,10.00
2023-03-12T00:45:08.823Z,9.20
2023-03-12T00:46:08.784Z,8.70
2023-03-12T00:47:08.777Z,9.60
2023-03-12T00:48:08.781Z,8.30
2023-03-12T00:49:08.756Z,9.00
2023-03-12T00:50:08.730Z,10.90
2023-03-12T00:51:08.735Z,9.20
2023-03-12T00:52:08.712Z,8.10
2023-03-12T00:53:08.783Z,11.20
2023-03-12T00:54:08.682Z,8.20
2023-03-12T00:55:08.777Z,10.20
2023-03-12T00:56:08.901Z,8.70
2023-03-12T00:57:08.848Z,9.50
2023-03-12T00:58:08.798Z,9.80
2023-03-12T00:59:08.861Z,10.50
2023-03-12T01:00:10.604Z,11.40
2023-03-12T01:01:08.671Z,8.60
2023-03-12T01:02:08.643Z,7.40
2023-03-12T01:03:08.665Z,8.00
2023-03-12T01:04:08.793Z,9.10
2023-03-12T01:05:08.741Z,9.40
2023-03-12T01:06:08.759Z,7.40
2023-03-12T01:07:08.772Z,8.20
2023-03-12T01:08:08.646Z,9.50
2023-03-12T01:09:08.526Z,9.30
2023-03-12T01:10:08.725Z,7.50
2023-03-12T01:11:08.520Z,8.70
2023-03-12T01:12:08.631Z,9.00
2023-03-12T01:13:08.717Z,7.60
2023-03-12T01:14:08.522Z,6.10
2023-03-12T01:15:08.467Z,6.90
2023-03-12T01:16:08.589Z,10.10
2023-03-12T01:17:08.442Z,7.90
2023-03-12T01:18:08.434Z,8.10
2023-03-12T01:19:08.439Z,8.20
2023-03-12T01:20:08.436Z,9.60
2023-03-12T01:21:08.434Z,10.50
2023-03-12T01:22:08.404Z,8.80
2023-03-12T01:23:08.380Z,9.80
2023-03-12T01:24:08.393Z,8.00
2023-03-12T01:25:08.397Z,9.10
2023-03-12T01:26:08.394Z,8.60
2023-03-12T01:27:08.334Z,9.20
2023-03-12T01:28:08.323Z,13.70
2023-03-12T01:29:08.368Z,9.00
2023-03-12T01:30:08.327Z,8.60
2023-03-12T01:31:08.526Z,7.90
2023-03-12T01:32:08.309Z,8.20
2023-03-12T01:33:08.283Z,8.90
2023-03-12T01:34:08.291Z,8.70
2023-03-12T01:35:08.329Z,7.60
2023-03-12T01:36:08.357Z,9.60
2023-03-12T01:37:08.247Z,9.60
2023-03-12T01:38:08.216Z,8.20
2023-03-12T01:39:08.246Z,8.00
2023-03-12T01:40:08.217Z,11.10
2023-03-12T01:41:08.209Z,8.50
2023-03-12T01:42:08.181Z,11.40
2023-03-12T01:43:08.189Z,7.80
2023-03-12T01:44:08.149Z,8.90
2023-03-12T01:45:08.141Z,7.10
2023-03-12T01:46:08.189Z,7.20
2023-03-12T01:47:08.240Z,9.90
2023-03-12T01:48:08.191Z,9.20
2023-03-12T01:49:08.100Z,9.50
2023-03-12T01:50:08.236Z,8.30
2023-03-12T01:51:08.108Z,8.30
2023-03-12T01:52:08.085Z,9.60
2023-03-12T01:53:08.044Z,6.90
2023-03-12T01:54:08.058Z,9.20
2023-03-12T01:55:08.024Z,8.20
2023-03-12T01:56:08.018Z,7.30
2023-03-12T01:57:08.222Z,7.80
2023-03-12T01:58:07.988Z,6.70
2023-03-12T01:59:07.981Z,9.20
2023-03-12T02:00:14.533Z,10.60
2023-03-12T02:01:08.043Z,10.70
2023-03-12T02:02:07.959Z,7.50
2023-03-12T02:03:07.970Z,9.50
2023-03-12T02:04:07.981Z,7.70
2023-03-12T02:05:07.935Z,11.20
2023-03-12T02:06:07.938Z,9.10
2023-03-12T02:07:07.915Z,7.90
2023-03-12T02:08:07.890Z,11.20
2023-03-12T02:09:07.875Z,10.20
2023-03-12T02:10:07.873Z,8.30
2023-03-12T02:11:07.854Z,7.70
2023-03-12T02:12:07.864Z,7.60
2023-03-12T02:13:07.819Z,7.70
2023-03-12T02:14:07.813Z,7.90
2023-03-12T02:15:07.806Z,9.70
2023-03-12T02:16:07.831Z,9.70
2023-03-12T02:17:07.791Z,9.60
2023-03-12T02:18:07.780Z,8.60
2023-03-12T02:19:07.769Z,9.00
2023-03-12T02:20:07.754Z,9.20
2023-03-12T02:21:07.748Z,11.00
2023-03-12T02:22:07.752Z,9.10
2023-03-12T02:23:07.727Z,12.00
2023-03-12T02:24:07.718Z,9.40
2023-03-12T02:25:07.691Z,10.10
2023-03-12T02:26:07.684Z,10.50
2023-03-12T02:27:07.689Z,9.10
2023-03-12T02:28:07.661Z,7.00
2023-03-12T02:29:07.656Z,9.70
2023-03-12T02:30:07.667Z,10.80
2023-03-12T02:31:07.633Z,11.00
2023-03-12T02:32:07.651Z,9.80
2023-03-12T02:33:07.628Z,9.50
2023-03-12T02:34:07.601Z,9.40
2023-03-12T02:35:07.585Z,11.40
2023-03-12T02:36:07.615Z,9.80
2023-03-12T02:37:07.586Z,10.70
2023-03-12T02:38:07.542Z,9.70
2023-03-12T02:39:07.547Z,9.60
2023-03-12T02:40:07.541Z,10.70
2023-03-12T02:41:07.515Z,9.00
2023-03-12T02:42:07.530Z,10.40
2023-03-12T02:43:07.511Z,10.60
2023-03-12T02:44:07.494Z,10.90
2023-03-12T02:45:07.480Z,9.20
2023-03-12T02:46:07.519Z,10.20
2023-03-12T02:47:07.476Z,11.10
2023-03-12T02:48:07.436Z,11.10
2023-03-12T02:49:07.433Z,11.60
2023-03-12T02:50:07.421Z,12.80
2023-03-12T02:51:07.412Z,10.40
2023-03-12T02:52:07.426Z,9.60
2023-03-12T02:53:07.388Z,8.60
2023-03-12T02:54:07.369Z,8.80
2023-03-12T02:55:07.370Z,11.40
2023-03-12T02:56:07.353Z,8.70
2023-03-12T02:57:07.368Z,8.50
2023-03-12T02:58:07.339Z,10.40
2023-03-12T02:59:07.351Z,9.50
2023-03-12T03:00:07.312Z,11.00
2023-03-12T03:01:07.369Z,9.50
2023-03-12T03:02:07.325Z,8.60
2023-03-12T03:03:07.323Z,10.60
2023-03-12T03:04:07.287Z,11.30
2023-03-12T03:05:07.260Z,11.10
2023-03-12T03:06:07.246Z,10.90
2023-03-12T03:07:07.291Z,8.20
2023-03-12T03:08:07.228Z,9.20
2023-03-12T03:09:07.245Z,9.90
2023-03-12T03:10:07.206Z,10.30
2023-03-12T03:11:07.195Z,8.70
2023-03-12T03:12:07.200Z,12.00
2023-03-12T03:13:07.172Z,10.20
2023-03-12T03:14:07.169Z,8.20
2023-03-12T03:15:07.146Z,8.70
2023-03-12T03:16:07.208Z,9.60
2023-03-12T03:17:07.148Z,10.90
2023-03-12T03:18:07.110Z,9.80
2023-03-12T03:19:07.110Z,9.80
2023-03-12T03:20:07.098Z,10.80
2023-03-12T03:21:07.094Z,11.70
2023-03-12T03:22:07.098Z,9.90
2023-03-12T03:23:07.058Z,10.10
2023-03-12T03:24:07.050Z,10.80
2023-03-12T03:25:07.047Z,12.00
2023-03-12T03:26:07.050Z,8.70
2023-03-12T03:27:07.053Z,10.30
2023-03-12T03:28:07.018Z,10.50
2023-03-12T03:29:06.998Z,8.90
2023-03-12T03:30:07.007Z,10.60
2023-03-12T03:31:06.999Z,9.70
2023-03-12T03:32:06.978Z,9.00
2023-03-12T03:33:06.963Z,12.10
2023-03-12T03:34:06.950Z,11.20
2023-03-12T03:35:06.930Z,10.30
2023-03-12T03:36:06.927Z,8.90
2023-03-12T03:37:06.940Z,9.50
2023-03-12T03:38:06.894Z,9.60
2023-03-12T03:39:06.891Z,10.60
2023-03-12T03:40:06.879Z,10.30
2023-03-12T03:41:06.887Z,10.00
2023-03-12T03:42:06.886Z,9.90
2023-03-12T03:43:06.849Z,11.20
2023-03-12T03:44:06.848Z,9.30
2023-03-12T03:45:06.819Z,8.70
2023-03-12T03:46:06.894Z,10.30
2023-03-12T03:47:06.824Z,11.10
2023-03-12T03:48:06.801Z,9.70
2023-03-12T03:49:06.781Z,9.40
2023-03-12T03:50:06.781Z,12.40
2023-03-12T03:51:06.770Z,9.40
2023-03-12T03:52:06.762Z,10.90
2023-03-12T03:53:06.727Z,13.00
2023-03-12T03:54:06.724Z,10.30
2023-03-12T03:55:06.712Z,10.00
2023-03-12T03:56:06.704Z,10.20
2023-03-12T03:57:06.705Z,11.30
2023-03-12T03:58:06.682Z,12.10
2023-03-12T03:59:06.672Z,12.10
2023-03-12T04:00:06.656Z,10.80
2023-03-12T04:01:06.641Z,11.20
2023-03-12T04:02:06.656Z,11.10
2023-03-12T04:03:06.658Z,11.40
2023-03-12T04:04:06.609Z,13.00
2023-03-12T04:05:06.619Z,12.90
2023-03-12T04:06:06.597Z,11.70
2023-03-12T04:07:06.613Z,9.80
2023-03-12T04:08:06.561Z,11.70
2023-03-12T04:09:06.561Z,10.10
2023-03-12T04:10:06.550Z,10.80
2023-03-12T04:11:06.535Z,11.10
2023-03-12T04:12:06.585Z,11.10
2023-03-12T04:13:06.521Z,12.10
2023-03-12T04:14:06.519Z,12.10
2023-03-12T04:15:06.496Z,11.20
2023-03-12T04:16:06.546Z,13.40
2023-03-12T04:17:06.474Z,13.30
2023-03-12T04:18:06.525Z,13.60
2023-03-12T04:19:06.449Z,12.90
2023-03-12T04:20:06.445Z,13.20
2023-03-12T04:21:06.428Z,14.40
2023-03-12T04:22:06.415Z,14.60
2023-03-12T04:23:06.430Z,12.30
2023-03-12T04:24:06.392Z,13.40
2023-03-12T04:25:06.405Z,11.90
2023-03-12T04:26:06.380Z,15.00
2023-03-12T04:27:06.368Z,12.20
2023-03-12T04:28:06.360Z,12.10
2023-03-12T04:29:06.332Z,13.70
2023-03-12T04:30:06.334Z,13.50
2023-03-12T04:31:06.326Z,11.90
2023-03-12T04:32:06.311Z,11.00
2023-03-12T04:33:06.327Z,11.80
2023-03-12T04:34:06.286Z,12.20
2023-03-12T04:35:06.297Z,14.60
2023-03-12T04:36:06.312Z,15.60
2023-03-12T04:37:06.248Z,12.00
2023-03-12T04:38:06.268Z,9.90
2023-03-12T04:39:06.236Z,12.40
2023-03-12T04:40:06.227Z,11.20
2023-03-12T04:41:06.242Z,11.30
2023-03-12T04:42:06.207Z,12.50
2023-03-12T04:43:06.205Z,11.80
2023-03-12T04:44:06.170Z,13.20
2023-03-12T04:45:06.177Z,12.10
2023-03-12T04:46:06.172Z,14.70
2023-03-12T04:47:06.160Z,11.20
2023-03-12T04:48:06.162Z,13.50
2023-03-12T04:49:06.122Z,12.30
2023-03-12T04:50:06.128Z,11.80
2023-03-12T04:51:06.106Z,11.30
2023-03-12T04:52:06.100Z,10.70
2023-03-12T04:53:06.195Z,12.20
2023-03-12T04:54:06.070Z,13.40
2023-03-12T04:55:06.062Z,11.10
2023-03-12T04:56:06.063Z,13.40
2023-03-12T04:57:06.060Z,12.20
2023-03-12T04:58:06.055Z,12.80
2023-03-12T04:59:06.024Z,12.30
2023-03-12T05:00:06.009Z,11.90
2023-03-12T05:01:06.046Z,12.50
2023-03-12T05:02:05.995Z,13.20
2023-03-12T05:03:06.134Z,12.20
2023-03-12T05:04:06.085Z,11.60
2023-03-12T05:05:05.958Z,13.50
2023-03-12T05:06:05.947Z,12.70
2023-03-12T05:07:05.981Z,13.20
2023-03-12T05:08:05.936Z,12.30
2023-03-12T05:09:05.912Z,13.80
2023-03-12T05:10:05.904Z,13.00
2023-03-12T05:11:05.889Z,11.90
2023-03-12T05:12:05.900Z,13.40
2023-03-12T05:13:05.880Z,13.80
2023-03-12T05:14:05.861Z,13.50
2023-03-12T05:15:05.856Z,13.50
2023-03-12T05:16:05.860Z,13.20
2023-03-12T05:17:05.837Z,12.10
2023-03-12T05:18:05.832Z,11.80
2023-03-12T05:19:05.797Z,13.10
2023-03-12T05:20:05.796Z,11.80
2023-03-12T05:21:05.781Z,12.70
2023-03-12T05:22:05.781Z,12.10
2023-03-12T05:23:05.780Z,13.40
2023-03-12T05:24:05.755Z,12.50
2023-03-12T05:25:05.729Z,13.20
2023-03-12T05:26:05.723Z,15.10
2023-03-12T05:27:05.707Z,14.60
2023-03-12T05:28:05.730Z,12.80
2023-03-12T05:29:05.738Z,13.70
2023-03-12T05:30:05.685Z,13.60
2023-03-12T05:31:05.681Z,15.40
2023-03-12T05:32:05.669Z,14.50
2023-03-12T05:33:05.667Z,12.40
2023-03-12T05:34:05.646Z,12.30
2023-03-12T05:35:05.626Z,12.20
2023-03-12T05:36:05.663Z,12.10
2023-03-12T05:37:05.612Z,13.70
2023-03-12T05:38:05.612Z,12.60
2023-03-12T05:39:05.585Z,13.10
2023-03-12T05:40:05.581Z,15.10
2023-03-12T05:41:05.564Z,11.90
2023-03-12T05:42:05.569Z,14.10
2023-03-12T05:43:05.556Z,14.70
2023-03-12T05:44:05.528Z,12.70
2023-03-12T05:45:05.529Z,12.20
2023-03-12T05:46:05.536Z,12.50
2023-03-12T05:47:05.493Z,12.40
2023-03-12T05:48:05.509Z,12.70
2023-03-12T05:49:05.480Z,12.30
2023-03-12T05:50:05.475Z,13.20
2023-03-12T05:51:05.452Z,12.70
2023-03-12T05:52:05.450Z,12.50
2023-03-12T05:53:05.463Z,11.70
2023-03-12T05:54:05.432Z,13.70
2023-03-12T05:55:05.403Z,12.00
2023-03-12T05:56:05.391Z,14.10
2023-03-12T05:57:05.385Z,13.30
2023-03-12T05:58:05.389Z,13.00
2023-03-12T05:59:05.363Z,11.30
2023-03-12T06:00:05.350Z,11.30
2023-03-12T06:01:05.339Z,12.80
2023-03-12T06:02:05.374Z,11.70
2023-03-12T06:03:05.360Z,12.80
2023-03-12T06:04:05.309Z,11.80
2023-03-12T06:05:05.303Z,10.80
2023-03-12T06:06:05.290Z,13.30
2023-03-12T06:07:05.272Z,10.80
2023-03-12T06:08:05.290Z,11.30
2023-03-12T06:09:05.252Z,12.20
2023-03-12T06:10:05.244Z,11.00
2023-03-12T06:11:05.224Z,11.60
2023-03-12T06:12:05.228Z,11.20
2023-03-12T06:13:05.225Z,11.80
2023-03-12T06:14:05.201Z,12.60
2023-03-12T06:15:05.176Z,12.30
2023-03-12T06:16:05.238Z,11.00
2023-03-12T06:17:05.156Z,10.90
2023-03-12T06:18:05.181Z,11.00
2023-03-12T06:19:05.131Z,12.20
2023-03-12T06:20:05.126Z,12.70
2023-03-12T06:21:05.118Z,10.20
2023-03-12T06:22:05.123Z,13.10
2023-03-12T06:23:05.115Z,11.00
2023-03-12T06:24:05.080Z,9.70
2023-03-12T06:25:05.066Z,9.60
2023-03-12T06:26:05.075Z,11.10
2023-03-12T06:27:05.042Z,10.50
2023-03-12T06:28:05.074Z,16.90
2023-03-12T06:29:05.025Z,9.90
2023-03-12T06:30:05.027Z,11.40
2023-03-12T06:31:05.042Z,10.60
2023-03-12T06:32:05.002Z,10.00
2023-03-12T06:33:05.005Z,10.90
2023-03-12T06:34:04.981Z,10.60
2023-03-12T06:35:04.965Z,10.70
2023-03-12T06:36:04.963Z,12.80
2023-03-12T06:37:04.940Z,13.20
2023-03-12T06:38:04.942Z,14.10
2023-03-12T06:39:04.945Z,11.30
2023-03-12T06:40:04.938Z,9.00
2023-03-12T06:41:04.905Z,9.70
2023-03-12T06:42:04.888Z,9.10
2023-03-12T06:43:04.925Z,9.00
2023-03-12T06:44:04.867Z,11.90
2023-03-12T06:45:04.870Z,10.20
2023-03-12T06:46:04.869Z,9.70
2023-03-12T06:47:04.831Z,8.90
2023-03-12T06:48:04.851Z,10.40
2023-03-12T06:49:04.827Z,9.80
2023-03-12T06:50:04.852Z,9.60
2023-03-12T06:51:04.800Z,10.20
2023-03-12T06:52:04.778Z,9.00
2023-03-12T06:53:04.781Z,11.70
2023-03-12T06:54:04.755Z,9.10
2023-03-12T06:55:04.743Z,10.20
2023-03-12T06:56:04.730Z,8.80
2023-03-12T06:57:04.723Z,9.10
2023-03-12T06:58:04.734Z,9.00
2023-03-12T06:59:04.715Z,11.30
2023-03-12T07:00:04.698Z,8.30
2023-03-12T07:01:04.678Z,10.40
2023-03-12T07:02:04.717Z,9.30
2023-03-12T07:03:04.685Z,8.70
2023-03-12T07:04:04.652Z,8.10
2023-03-12T07:05:04.785Z,10.60
2023-03-12T07:06:04.638Z,11.10
2023-03-12T07:07:04.610Z,9.90
2023-03-12T07:08:04.648Z,9.80
2023-03-12T07:09:04.587Z,7.60
2023-03-12T07:10:04.590Z,7.60
2023-03-12T07:11:04.572Z,7.40
2023-03-12T07:12:04.566Z,8.10
2023-03-12T07:13:04.572Z,7.50
2023-03-12T07:14:04.546Z,7.00
2023-03-12T07:15:04.533Z,9.00
2023-03-12T07:16:04.607Z,7.00
2023-03-12T07:17:04.513Z,10.50
2023-03-12T07:18:04.530Z,9.80
2023-03-12T07:19:04.491Z,7.00
2023-03-12T07:20:04.479Z,7.80
2023-03-12T07:21:04.469Z,8.30
2023-03-12T07:22:04.456Z,10.20
2023-03-12T07:23:04.476Z,10.30
2023-03-12T07:24:04.437Z,9.00
2023-03-12T07:25:04.423Z,8.00
2023-03-12T07:26:04.416Z,8.90
2023-03-12T07:27:04.401Z,6.60
2023-03-12T07:28:04.416Z,7.80
2023-03-12T07:29:04.384Z,7.00
2023-03-12T07:30:04.381Z,9.20
2023-03-12T07:31:04.439Z,8.70
2023-03-12T07:32:04.342Z,8.70
2023-03-12T07:33:04.520Z,7.50
2023-03-12T07:34:04.498Z,7.80
2023-03-12T07:35:04.325Z,7.30
2023-03-12T07:36:04.390Z,7.40
2023-03-12T07:37:04.298Z,8.40
2023-03-12T07:38:04.412Z,7.20
2023-03-12T07:39:04.277Z,5.90
2023-03-12T07:40:04.299Z,6.50
2023-03-12T07:41:04.278Z,8.30
2023-03-12T07:42:04.316Z,7.80
2023-03-12T07:43:04.236Z,6.40
2023-03-12T07:44:04.242Z,6.20
2023-03-12T07:45:04.296Z,8.50
2023-03-12T07:46:04.189Z,7.10
2023-03-12T07:47:20.712Z,8.40
2023-03-12T07:48:04.234Z,5.40
2023-03-12T07:49:04.157Z,5.70
2023-03-12T07:50:04.188Z,7.50
2023-03-12T07:51:04.141Z,7.30
2023-03-12T07:52:04.171Z,6.70
2023-03-12T07:53:04.131Z,5.80
2023-03-12T07:54:04.102Z,6.50
2023-03-12T07:55:04.126Z,7.00
2023-03-12T07:56:04.227Z,8.50
2023-03-12T07:57:04.247Z,5.70
2023-03-12T07:58:04.187Z,7.00
2023-03-12T07:59:04.187Z,6.00
2023-03-12T08:00:04.077Z,7.80
2023-03-12T08:01:10.672Z,6.30
2023-03-12T08:02:04.439Z,6.60
2023-03-12T08:03:04.290Z,5.00
2023-03-12T08:04:04.066Z,5.80
2023-03-12T08:05:04.048Z,6.10
2023-03-12T08:06:04.034Z,8.60
2023-03-12T08:07:04.047Z,7.00
2023-03-12T08:08:03.952Z,5.70
2023-03-12T08:09:03.969Z,4.60
2023-03-12T08:10:04.002Z,6.00
2023-03-12T08:11:03.916Z,4.80
2023-03-12T08:12:03.926Z,5.80
2023-03-12T08:13:03.923Z,6.00
2023-03-12T08:14:03.991Z,4.90
2023-03-12T08:15:03.898Z,4.80
2023-03-12T08:16:03.936Z,3.80
2023-03-12T08:17:04.158Z,5.00
2023-03-12T08:18:03.894Z,4.40
2023-03-12T08:19:04.022Z,5.70
2023-03-12T08:20:03.815Z,6.90
2023-03-12T08:21:03.798Z,4.40
2023-03-12T08:22:03.796Z,5.60
2023-03-12T08:23:03.925Z,3.30
2023-03-12T08:24:04.002Z,4.30
2023-03-12T08:25:03.970Z,3.90
2023-03-12T08:26:03.971Z,5.30
2023-03-12T08:27:03.967Z,5.80
2023-03-12T08:28:04.005Z,4.60
2023-03-12T08:29:03.773Z,4.50
2023-03-12T08:30:03.717Z,5.80
2023-03-12T08:31:03.898Z,4.70
2023-03-12T08:32:05.508Z,7.10
2023-03-12T08:33:03.958Z,5.30
2023-03-12T08:34:03.686Z,3.40
2023-03-12T08:35:03.673Z,6.20
2023-03-12T08:36:03.885Z,6.00
2023-03-12T08:37:04.565Z,5.90
2023-03-12T08:38:03.643Z,6.00
2023-03-12T08:39:03.621Z,5.30
2023-03-12T08:40:03.585Z,4.70
2023-03-12T08:41:03.588Z,6.00
2023-03-12T08:42:03.559Z,6.80
2023-03-12T08:43:03.577Z,4.40
2023-03-12T08:44:03.598Z,5.40
2023-03-12T08:45:03.551Z,5.50
2023-03-12T08:46:03.625Z,5.50
2023-03-12T08:47:03.536Z,5.50
2023-03-12T08:48:03.501Z,7.40
2023-03-12T08:49:03.510Z,5.60
2023-03-12T08:50:05.167Z,5.80
2023-03-12T08:51:03.487Z,7.40
2023-03-12T08:52:03.463Z,4.20
2023-03-12T08:53:03.486Z,7.20
2023-03-12T08:54:04.085Z,5.70
2023-03-12T08:55:03.669Z,4.40
2023-03-12T08:56:03.419Z,3.90
2023-03-12T08:57:03.404Z,4.30
2023-03-12T08:58:03.948Z,4.50
2023-03-12T08:59:03.818Z,5.40
2023-03-12T09:00:03.382Z,6.60
2023-03-12T09:01:03.387Z,4.80
2023-03-12T09:02:03.352Z,6.10
2023-03-12T09:03:03.430Z,6.00
2023-03-12T09:04:03.382Z,6.30
2023-03-12T09:05:03.318Z,6.00
2023-03-12T09:06:03.318Z,5.10
2023-03-12T09:07:03.374Z,4.90
2023-03-12T09:08:03.301Z,5.30
2023-03-12T09:09:03.302Z,5.20
2023-03-12T09:10:03.280Z,6.90
2023-03-12T09:11:03.245Z,5.00
2023-03-12T09:12:03.245Z,5.00
2023-03-12T09:13:03.236Z,4.40
2023-03-12T09:14:39.478Z,5.20
2023-03-12T09:15:04.732Z,7.80
2023-03-12T09:16:03.465Z,6.90
2023-03-12T09:17:03.284Z,5.10
2023-03-12T09:18:03.438Z,6.20
2023-03-12T09:19:03.175Z,5.30
2023-03-12T09:20:03.158Z,7.70
2023-03-12T09:21:03.157Z,6.80
2023-03-12T09:22:03.157Z,4.90
2023-03-12T09:23:03.324Z,6.90
2023-03-12T09:24:03.120Z,7.90
2023-03-12T09:25:03.111Z,5.50
2023-03-12T09:26:03.271Z,6.60
2023-03-12T09:27:03.068Z,5.40
2023-03-12T09:28:03.270Z,6.50
2023-03-12T09:29:03.076Z,7.50
2023-03-12T09:30:03.050Z,6.10
2023-03-12T09:31:03.113Z,7.00
2023-03-12T09:32:05.804Z,6.80
2023-03-12T09:33:03.034Z,11.40
2023-03-12T09:34:03.036Z,7.20
2023-03-12T09:35:02.977Z,8.80
2023-03-12T09:36:03.005Z,7.40
2023-03-12T09:37:02.951Z,7.30
2023-03-12T09:38:02.957Z,6.80
2023-03-12T09:39:02.950Z,8.10
2023-03-12T09:40:02.922Z,6.20
2023-03-12T09:41:02.912Z,6.90
2023-03-12T09:42:02.946Z,4.90
2023-03-12T09:43:02.897Z,4.80
2023-03-12T09:44:02.936Z,5.90
2023-03-12T09:45:02.877Z,4.30
2023-03-12T09:46:02.890Z,6.00
2023-03-12T09:47:02.850Z,5.40
2023-03-12T09:48:02.867Z,5.90
2023-03-12T09:49:02.840Z,7.00
2023-03-12T09:50:02.827Z,6.70
2023-03-12T09:51:02.809Z,7.00
2023-03-12T09:52:02.789Z,6.40
2023-03-12T09:53:02.780Z,7.90
2023-03-12T09:54:02.794Z,5.90
2023-03-12T09:55:02.748Z,5.60
2023-03-12T09:56:02.750Z,7.40
2023-03-12T09:57:02.725Z,6.50
2023-03-12T09:58:02.726Z,5.70
2023-03-12T09:59:02.741Z,6.50
2023-03-12T10:00:02.714Z,5.60
2023-03-12T10:01:02.689Z,6.40
2023-03-12T10:02:02.757Z,7.10
2023-03-12T10:03:02.700Z,6.20
2023-03-12T10:04:02.677Z,6.60
2023-03-12T10:05:02.828Z,5.30
2023-03-12T10:06:02.660Z,7.40
2023-03-12T10:07:02.629Z,7.00
2023-03-12T10:08:17.259Z,12.80
2023-03-12T10:09:02.627Z,6.00
2023-03-12T10:10:02.624Z,6.70
2023-03-12T10:11:02.593Z,6.60
2023-03-12T10:12:02.571Z,7.90
2023-03-12T10:13:02.600Z,7.80
2023-03-12T10:14:02.570Z,5.90
2023-03-12T10:15:02.545Z,9.90
2023-03-12T10:16:02.587Z,5.40
2023-03-12T10:17:02.549Z,8.60
2023-03-12T10:18:02.692Z,8.30
2023-03-12T10:19:02.535Z,5.00
2023-03-12T10:20:02.489Z,9.50
2023-03-12T10:21:02.468Z,6.20
2023-03-12T10:22:02.460Z,10.40
2023-03-12T10:23:02.449Z,6.70
2023-03-12T10:24:02.457Z,7.90
2023-03-12T10:25:02.429Z,7.10
2023-03-12T10:26:02.409Z,4.30
2023-03-12T10:27:02.415Z,4.80
2023-03-12T10:28:02.410Z,6.20
2023-03-12T10:29:02.407Z,6.10
2023-03-12T10:30:02.380Z,11.90
2023-03-12T10:31:02.419Z,8.60
2023-03-12T10:32:02.357Z,5.20
2023-03-12T10:33:02.347Z,6.50
2023-03-12T10:34:02.361Z,6.70
2023-03-12T10:35:02.337Z,9.70
2023-03-12T10:36:02.346Z,10.30
2023-03-12T10:37:02.298Z,7.40
2023-03-12T10:38:02.292Z,7.10
2023-03-12T10:39:02.304Z,6.80
2023-03-12T10:40:02.261Z,7.10
2023-03-12T10:41:02.273Z,8.50
2023-03-12T10:42:02.257Z,7.70
2023-03-12T10:43:02.255Z,10.50
2023-03-12T10:44:02.233Z,5.80
2023-03-12T10:45:02.226Z,8.50
2023-03-12T10:46:02.249Z,6.60
2023-03-12T10:47:02.183Z,6.40
2023-03-12T10:48:02.185Z,9.90
2023-03-12T10:49:02.216Z,8.90
2023-03-12T10:50:02.227Z,5.30
2023-03-12T10:51:02.146Z,7.60
2023-03-12T10:52:02.136Z,4.50
2023-03-12T10:53:02.108Z,10.00
2023-03-12T10:54:02.206Z,10.10
2023-03-12T10:55:02.117Z,11.00
2023-03-12T10:56:02.098Z,10.50
2023-03-12T10:57:02.186Z,10.60
2023-03-12T10:58:02.090Z,5.10
2023-03-12T10:59:02.060Z,7.60
2023-03-12T11:00:02.061Z,6.80
2023-03-12T11:01:02.054Z,8.60
2023-03-12T11:02:02.089Z,5.40
2023-03-12T11:03:02.070Z,5.20
2023-03-12T11:04:02.227Z,7.50
2023-03-12T11:05:02.095Z,5.50
2023-03-12T11:06:02.016Z,7.60
2023-03-12T11:07:01.991Z,6.50
2023-03-12T11:08:02.034Z,6.50
2023-03-12T11:09:15.837Z,7.20
2023-03-12T11:10:01.944Z,7.20
2023-03-12T11:11:01.961Z,5.80
2023-03-12T11:12:01.925Z,4.20
2023-03-12T11:13:01.934Z,5.50
2023-03-12T11:14:02.067Z,4.80
2023-03-12T11:15:01.941Z,4.40
2023-03-12T11:16:01.897Z,5.40
2023-03-12T11:17:01.961Z,4.00
2023-03-12T11:18:01.944Z,4.70
2023-03-12T11:19:01.963Z,4.60
2023-03-12T11:20:01.861Z,4.80
2023-03-12T11:21:01.880Z,6.20
2023-03-12T11:22:01.823Z,5.90
2023-03-12T11:23:01.880Z,4.10
2023-03-12T11:24:01.785Z,3.10
2023-03-12T11:25:01.856Z,5.20
2023-03-12T11:26:01.940Z,4.40
2023-03-12T11:27:01.876Z,5.00
2023-03-12T11:28:01.781Z,7.30
2023-03-12T11:29:01.737Z,4.00
2023-03-12T11:30:01.715Z,4.90
2023-03-12T11:31:01.906Z,4.70
2023-03-12T11:32:01.799Z,4.90
2023-03-12T11:33:01.841Z,2.80
2023-03-12T11:34:01.743Z,6.70
2023-03-12T11:35:01.680Z,4.90
2023-03-12T11:36:01.647Z,3.10
2023-03-12T11:37:01.698Z,4.10
2023-03-12T11:38:01.628Z,5.40
2023-03-12T11:39:01.632Z,4.60
2023-03-12T11:40:01.620Z,6.10
2023-03-12T11:41:01.637Z,4.50
2023-03-12T11:42:01.595Z,4.00
2023-03-12T11:43:01.572Z,6.40
2023-03-12T11:44:01.586Z,5.00
2023-03-12T11:45:01.639Z,4.80
2023-03-12T11:46:01.576Z,5.70
2023-03-12T11:47:01.590Z,7.00
2023-03-12T11:48:01.607Z,4.90
2023-03-12T11:49:01.569Z,3.60
2023-03-12T11:50:01.625Z,5.00
2023-03-12T11:51:01.573Z,5.10
2023-03-12T11:52:01.465Z,5.90
2023-03-12T11:53:01.547Z,4.20
2023-03-12T11:54:01.532Z,4.70
2023-03-12T11:55:01.428Z,4.40
2023-03-12T11:56:01.426Z,5.40
2023-03-12T11:57:01.540Z,5.00
2023-03-12T11:58:01.459Z,4.90
2023-03-12T11:59:01.560Z,6.70
2023-03-12T12:00:01.417Z,6.00
2023-03-12T12:01:01.390Z,5.00
2023-03-12T12:02:01.580Z,4.10
2023-03-12T12:03:01.369Z,4.70
2023-03-12T12:04:01.374Z,4.30
2023-03-12T12:05:01.371Z,4.20
2023-03-12T12:06:01.340Z,5.30
2023-03-12T12:07:01.320Z,3.90
2023-03-12T12:08:01.310Z,5.70
2023-03-12T12:09:01.334Z,3.60
2023-03-12T12:10:01.274Z,5.70
2023-03-12T12:11:01.318Z,6.10
2023-03-12T12:12:02.981Z,5.00
2023-03-12T12:13:01.228Z,3.30
2023-03-12T12:14:01.237Z,5.60
2023-03-12T12:15:01.341Z,5.20
2023-03-12T12:16:01.260Z,3.60
2023-03-12T12:17:01.341Z,3.40
2023-03-12T12:18:01.270Z,6.00
2023-03-12T12:19:04.055Z,4.30
2023-03-12T12:20:01.152Z,3.80
2023-03-12T12:21:01.174Z,6.10
2023-03-12T12:22:01.212Z,4.20
2023-03-12T12:23:01.156Z,3.60
2023-03-12T12:24:01.171Z,5.30
2023-03-12T12:25:01.288Z,5.50
2023-03-12T12:26:01.118Z,4.60
2023-03-12T12:27:01.263Z,5.70
2023-03-12T12:28:01.146Z,6.10
2023-03-12T12:29:01.089Z,5.40
2023-03-12T12:30:01.121Z,3.90
2023-03-12T12:31:01.041Z,5.00
2023-03-12T12:32:01.074Z,2.90
2023-03-12T12:33:01.065Z,4.20
2023-03-12T12:34:01.708Z,2.90
2023-03-12T12:35:01.014Z,4.50
2023-03-12T12:36:01.238Z,6.10
2023-03-12T12:37:00.977Z,5.40
2023-03-12T12:38:00.997Z,5.60
2023-03-12T12:39:00.956Z,4.10
2023-03-12T12:40:00.945Z,2.90
2023-03-12T12:41:00.938Z,4.10
2023-03-12T12:42:00.941Z,3.80
2023-03-12T12:43:00.898Z,4.60
2023-03-12T12:44:00.975Z,4.90
2023-03-12T12:45:00.917Z,5.40
2023-03-12T12:46:00.885Z,5.60
2023-03-12T12:47:00.852Z,4.30
2023-03-12T12:48:00.832Z,4.70
2023-03-12T12:49:00.845Z,4.50
2023-03-12T12:50:00.824Z,3.50
2023-03-12T12:51:00.831Z,3.90
2023-03-12T12:52:00.822Z,4.90
2023-03-12T12:53:00.792Z,5.60
2023-03-12T12:54:00.800Z,7.20
2023-03-12T12:55:00.838Z,4.20
2023-03-12T12:56:00.837Z,2.70
2023-03-12T12:57:00.818Z,6.10
2023-03-12T12:58:00.725Z,3.20
2023-03-12T12:59:00.772Z,2.60
2023-03-12T13:00:00.726Z,4.20
2023-03-12T13:01:00.786Z,4.40
2023-03-12T13:02:00.718Z,2.30
2023-03-12T13:03:00.724Z,4.90
2023-03-12T13:04:00.744Z,3.60
2023-03-12T13:05:00.658Z,4.60
2023-03-12T13:06:00.664Z,4.10
2023-03-12T13:07:00.638Z,3.60
2023-03-12T13:08:00.641Z,3.20
2023-03-12T13:09:00.646Z,3.50
2023-03-12T13:10:00.601Z,4.00